<?xml version="1.0" encoding="UTF-8" standalone="no" ?>
<gpx xmlns="http://www.topografix.com/GPX/1/1" xmlns:xsi="http://www.w3.org/2001/XMLSchema-instance" xsi:schemaLocation="http://www.topografix.com/GPX/1/1 http://www.topografix.com/GPX/1/1/gpx.xsd" version="1.1" creator="VisuGPX - https://www.visugpx.com">
  <metadata>
    <name>BRC Bol d’air avec Jean Jacques Jonquilles en forêt Senart</name>
    <desc><![CDATA[Circuit en foret de Sénart 

IBP = 24
Un passage très boueux a nécessité de faire demi tour
]]></desc>
  </metadata>
  <trk>
    <name><![CDATA[BRC Bol d’air avec Jean Jacques Jonquilles en forêt Senart]]></name>
    <trkseg>
      <trkpt lat="48.67648" lon="2.49074">
        <ele>86</ele>
        <time>2024-03-05T13:48:43+01:00</time>
      </trkpt>
      <trkpt lat="48.67632" lon="2.49049">
        <ele>84</ele>
        <time>2024-03-05T13:49:08+01:00</time>
      </trkpt>
      <trkpt lat="48.67612" lon="2.49032">
        <ele>85</ele>
        <time>2024-03-05T13:49:34+01:00</time>
      </trkpt>
      <trkpt lat="48.67589" lon="2.49033">
        <ele>85</ele>
        <time>2024-03-05T13:49:55+01:00</time>
      </trkpt>
      <trkpt lat="48.67566" lon="2.49029">
        <ele>85</ele>
        <time>2024-03-05T13:50:19+01:00</time>
      </trkpt>
      <trkpt lat="48.67546" lon="2.49009">
        <ele>85</ele>
        <time>2024-03-05T13:50:37+01:00</time>
      </trkpt>
      <trkpt lat="48.67525" lon="2.48994">
        <ele>84</ele>
        <time>2024-03-05T13:51:00+01:00</time>
      </trkpt>
      <trkpt lat="48.67513" lon="2.49025">
        <ele>85</ele>
        <time>2024-03-05T13:51:18+01:00</time>
      </trkpt>
      <trkpt lat="48.67502" lon="2.49056">
        <ele>85</ele>
        <time>2024-03-05T13:51:39+01:00</time>
      </trkpt>
      <trkpt lat="48.6749" lon="2.49085">
        <ele>86</ele>
        <time>2024-03-05T13:51:56+01:00</time>
      </trkpt>
      <trkpt lat="48.67469" lon="2.491">
        <ele>85</ele>
        <time>2024-03-05T13:52:21+01:00</time>
      </trkpt>
      <trkpt lat="48.67452" lon="2.49124">
        <ele>85</ele>
        <time>2024-03-05T13:52:38+01:00</time>
      </trkpt>
      <trkpt lat="48.67434" lon="2.49144">
        <ele>85</ele>
        <time>2024-03-05T13:52:58+01:00</time>
      </trkpt>
      <trkpt lat="48.67424" lon="2.49176">
        <ele>85</ele>
        <time>2024-03-05T13:53:18+01:00</time>
      </trkpt>
      <trkpt lat="48.67404" lon="2.49194">
        <ele>85</ele>
        <time>2024-03-05T13:53:41+01:00</time>
      </trkpt>
      <trkpt lat="48.67387" lon="2.49217">
        <ele>84</ele>
        <time>2024-03-05T13:54:03+01:00</time>
      </trkpt>
      <trkpt lat="48.67365" lon="2.49211">
        <ele>85</ele>
        <time>2024-03-05T13:54:32+01:00</time>
      </trkpt>
      <trkpt lat="48.67356" lon="2.49178">
        <ele>85</ele>
        <time>2024-03-05T13:54:51+01:00</time>
      </trkpt>
      <trkpt lat="48.67347" lon="2.49147">
        <ele>84</ele>
        <time>2024-03-05T13:55:11+01:00</time>
      </trkpt>
      <trkpt lat="48.67339" lon="2.49113">
        <ele>85</ele>
        <time>2024-03-05T13:55:31+01:00</time>
      </trkpt>
      <trkpt lat="48.67326" lon="2.49085">
        <ele>83</ele>
        <time>2024-03-05T13:55:54+01:00</time>
      </trkpt>
      <trkpt lat="48.67312" lon="2.49056">
        <ele>83</ele>
        <time>2024-03-05T13:56:12+01:00</time>
      </trkpt>
      <trkpt lat="48.67301" lon="2.49025">
        <ele>84</ele>
        <time>2024-03-05T13:56:37+01:00</time>
      </trkpt>
      <trkpt lat="48.6729" lon="2.48995">
        <ele>86</ele>
        <time>2024-03-05T13:56:56+01:00</time>
      </trkpt>
      <trkpt lat="48.67283" lon="2.48962">
        <ele>84</ele>
        <time>2024-03-05T13:57:15+01:00</time>
      </trkpt>
      <trkpt lat="48.67275" lon="2.48929">
        <ele>85</ele>
        <time>2024-03-05T13:57:40+01:00</time>
      </trkpt>
      <trkpt lat="48.67264" lon="2.48898">
        <ele>85</ele>
        <time>2024-03-05T13:58:02+01:00</time>
      </trkpt>
      <trkpt lat="48.67253" lon="2.48867">
        <ele>86</ele>
        <time>2024-03-05T13:58:21+01:00</time>
      </trkpt>
      <trkpt lat="48.67243" lon="2.4883">
        <ele>86</ele>
        <time>2024-03-05T13:58:44+01:00</time>
      </trkpt>
      <trkpt lat="48.67242" lon="2.48796">
        <ele>85</ele>
        <time>2024-03-05T13:59:06+01:00</time>
      </trkpt>
      <trkpt lat="48.67232" lon="2.48763">
        <ele>85</ele>
        <time>2024-03-05T13:59:29+01:00</time>
      </trkpt>
      <trkpt lat="48.67217" lon="2.48737">
        <ele>85</ele>
        <time>2024-03-05T13:59:47+01:00</time>
      </trkpt>
      <trkpt lat="48.67197" lon="2.48723">
        <ele>86</ele>
        <time>2024-03-05T14:00:10+01:00</time>
      </trkpt>
      <trkpt lat="48.67175" lon="2.48707">
        <ele>85</ele>
        <time>2024-03-05T14:00:30+01:00</time>
      </trkpt>
      <trkpt lat="48.67155" lon="2.48691">
        <ele>84</ele>
        <time>2024-03-05T14:00:52+01:00</time>
      </trkpt>
      <trkpt lat="48.67131" lon="2.48683">
        <ele>85</ele>
        <time>2024-03-05T14:01:17+01:00</time>
      </trkpt>
      <trkpt lat="48.6711" lon="2.4867">
        <ele>84</ele>
        <time>2024-03-05T14:01:39+01:00</time>
      </trkpt>
      <trkpt lat="48.6709" lon="2.48686">
        <ele>84</ele>
        <time>2024-03-05T14:02:01+01:00</time>
      </trkpt>
      <trkpt lat="48.67071" lon="2.48705">
        <ele>85</ele>
        <time>2024-03-05T14:02:22+01:00</time>
      </trkpt>
      <trkpt lat="48.67049" lon="2.487">
        <ele>86</ele>
        <time>2024-03-05T14:02:53+01:00</time>
      </trkpt>
      <trkpt lat="48.67026" lon="2.487">
        <ele>86</ele>
        <time>2024-03-05T14:03:15+01:00</time>
      </trkpt>
      <trkpt lat="48.67003" lon="2.4869">
        <ele>85</ele>
        <time>2024-03-05T14:03:36+01:00</time>
      </trkpt>
      <trkpt lat="48.66981" lon="2.48698">
        <ele>84</ele>
        <time>2024-03-05T14:03:54+01:00</time>
      </trkpt>
      <trkpt lat="48.66957" lon="2.487">
        <ele>85</ele>
        <time>2024-03-05T14:04:16+01:00</time>
      </trkpt>
      <trkpt lat="48.6694" lon="2.48677">
        <ele>85</ele>
        <time>2024-03-05T14:04:35+01:00</time>
      </trkpt>
      <trkpt lat="48.66917" lon="2.48677">
        <ele>83</ele>
        <time>2024-03-05T14:04:57+01:00</time>
      </trkpt>
      <trkpt lat="48.66895" lon="2.48685">
        <ele>84</ele>
        <time>2024-03-05T14:05:16+01:00</time>
      </trkpt>
      <trkpt lat="48.66871" lon="2.48692">
        <ele>85</ele>
        <time>2024-03-05T14:05:37+01:00</time>
      </trkpt>
      <trkpt lat="48.6685" lon="2.48707">
        <ele>85</ele>
        <time>2024-03-05T14:05:59+01:00</time>
      </trkpt>
      <trkpt lat="48.6684" lon="2.4874">
        <ele>85</ele>
        <time>2024-03-05T14:06:18+01:00</time>
      </trkpt>
      <trkpt lat="48.6682" lon="2.48756">
        <ele>84</ele>
        <time>2024-03-05T14:06:37+01:00</time>
      </trkpt>
      <trkpt lat="48.66797" lon="2.48768">
        <ele>82</ele>
        <time>2024-03-05T14:07:01+01:00</time>
      </trkpt>
      <trkpt lat="48.66798" lon="2.48804">
        <ele>85</ele>
        <time>2024-03-05T14:07:17+01:00</time>
      </trkpt>
      <trkpt lat="48.66802" lon="2.48838">
        <ele>86</ele>
        <time>2024-03-05T14:07:32+01:00</time>
      </trkpt>
      <trkpt lat="48.66809" lon="2.4887">
        <ele>85</ele>
        <time>2024-03-05T14:07:55+01:00</time>
      </trkpt>
      <trkpt lat="48.66789" lon="2.48887">
        <ele>86</ele>
        <time>2024-03-05T14:08:15+01:00</time>
      </trkpt>
      <trkpt lat="48.66765" lon="2.48884">
        <ele>86</ele>
        <time>2024-03-05T14:08:37+01:00</time>
      </trkpt>
      <trkpt lat="48.66744" lon="2.48894">
        <ele>84</ele>
        <time>2024-03-05T14:08:57+01:00</time>
      </trkpt>
      <trkpt lat="48.66721" lon="2.48902">
        <ele>86</ele>
        <time>2024-03-05T14:09:17+01:00</time>
      </trkpt>
      <trkpt lat="48.66699" lon="2.48908">
        <ele>84</ele>
        <time>2024-03-05T14:09:37+01:00</time>
      </trkpt>
      <trkpt lat="48.66678" lon="2.48923">
        <ele>85</ele>
        <time>2024-03-05T14:09:59+01:00</time>
      </trkpt>
      <trkpt lat="48.6666" lon="2.48945">
        <ele>83</ele>
        <time>2024-03-05T14:10:18+01:00</time>
      </trkpt>
      <trkpt lat="48.66648" lon="2.48973">
        <ele>83</ele>
        <time>2024-03-05T14:10:39+01:00</time>
      </trkpt>
      <trkpt lat="48.66632" lon="2.48998">
        <ele>84</ele>
        <time>2024-03-05T14:11:03+01:00</time>
      </trkpt>
      <trkpt lat="48.66609" lon="2.48996">
        <ele>84</ele>
        <time>2024-03-05T14:11:23+01:00</time>
      </trkpt>
      <trkpt lat="48.66587" lon="2.49004">
        <ele>86</ele>
        <time>2024-03-05T14:11:44+01:00</time>
      </trkpt>
      <trkpt lat="48.66564" lon="2.4901">
        <ele>83</ele>
        <time>2024-03-05T14:12:05+01:00</time>
      </trkpt>
      <trkpt lat="48.66541" lon="2.49017">
        <ele>84</ele>
        <time>2024-03-05T14:12:25+01:00</time>
      </trkpt>
      <trkpt lat="48.66525" lon="2.49041">
        <ele>84</ele>
        <time>2024-03-05T14:12:44+01:00</time>
      </trkpt>
      <trkpt lat="48.66502" lon="2.49048">
        <ele>84</ele>
        <time>2024-03-05T14:13:04+01:00</time>
      </trkpt>
      <trkpt lat="48.66479" lon="2.4904">
        <ele>84</ele>
        <time>2024-03-05T14:13:24+01:00</time>
      </trkpt>
      <trkpt lat="48.66458" lon="2.49056">
        <ele>83</ele>
        <time>2024-03-05T14:13:45+01:00</time>
      </trkpt>
      <trkpt lat="48.66443" lon="2.49085">
        <ele>86</ele>
        <time>2024-03-05T14:14:05+01:00</time>
      </trkpt>
      <trkpt lat="48.66422" lon="2.491">
        <ele>84</ele>
        <time>2024-03-05T14:14:28+01:00</time>
      </trkpt>
      <trkpt lat="48.66403" lon="2.49117">
        <ele>84</ele>
        <time>2024-03-05T14:14:50+01:00</time>
      </trkpt>
      <trkpt lat="48.66384" lon="2.49138">
        <ele>83</ele>
        <time>2024-03-05T14:15:14+01:00</time>
      </trkpt>
      <trkpt lat="48.66372" lon="2.49167">
        <ele>84</ele>
        <time>2024-03-05T14:15:36+01:00</time>
      </trkpt>
      <trkpt lat="48.6635" lon="2.49178">
        <ele>83</ele>
        <time>2024-03-05T14:15:58+01:00</time>
      </trkpt>
      <trkpt lat="48.66331" lon="2.49197">
        <ele>83</ele>
        <time>2024-03-05T14:16:18+01:00</time>
      </trkpt>
      <trkpt lat="48.66309" lon="2.4921">
        <ele>83</ele>
        <time>2024-03-05T14:16:45+01:00</time>
      </trkpt>
      <trkpt lat="48.66288" lon="2.49228">
        <ele>84</ele>
        <time>2024-03-05T14:17:09+01:00</time>
      </trkpt>
      <trkpt lat="48.6627" lon="2.49207">
        <ele>84</ele>
        <time>2024-03-05T14:17:31+01:00</time>
      </trkpt>
      <trkpt lat="48.66247" lon="2.49195">
        <ele>85</ele>
        <time>2024-03-05T14:17:51+01:00</time>
      </trkpt>
      <trkpt lat="48.66224" lon="2.49196">
        <ele>83</ele>
        <time>2024-03-05T14:18:15+01:00</time>
      </trkpt>
      <trkpt lat="48.66201" lon="2.49195">
        <ele>84</ele>
        <time>2024-03-05T14:18:33+01:00</time>
      </trkpt>
      <trkpt lat="48.66179" lon="2.49203">
        <ele>84</ele>
        <time>2024-03-05T14:18:52+01:00</time>
      </trkpt>
      <trkpt lat="48.66157" lon="2.49211">
        <ele>84</ele>
        <time>2024-03-05T14:19:16+01:00</time>
      </trkpt>
      <trkpt lat="48.66138" lon="2.4923">
        <ele>85</ele>
        <time>2024-03-05T14:19:34+01:00</time>
      </trkpt>
      <trkpt lat="48.66116" lon="2.49241">
        <ele>83</ele>
        <time>2024-03-05T14:19:58+01:00</time>
      </trkpt>
      <trkpt lat="48.66092" lon="2.49242">
        <ele>85</ele>
        <time>2024-03-05T14:20:20+01:00</time>
      </trkpt>
      <trkpt lat="48.6607" lon="2.49248">
        <ele>84</ele>
        <time>2024-03-05T14:20:39+01:00</time>
      </trkpt>
      <trkpt lat="48.66055" lon="2.49274">
        <ele>83</ele>
        <time>2024-03-05T14:21:01+01:00</time>
      </trkpt>
      <trkpt lat="48.66032" lon="2.49264">
        <ele>83</ele>
        <time>2024-03-05T14:21:29+01:00</time>
      </trkpt>
      <trkpt lat="48.66009" lon="2.49258">
        <ele>83</ele>
        <time>2024-03-05T14:21:43+01:00</time>
      </trkpt>
      <trkpt lat="48.65988" lon="2.4927">
        <ele>83</ele>
        <time>2024-03-05T14:23:14+01:00</time>
      </trkpt>
      <trkpt lat="48.65966" lon="2.49258">
        <ele>83</ele>
        <time>2024-03-05T14:23:34+01:00</time>
      </trkpt>
      <trkpt lat="48.65946" lon="2.49242">
        <ele>84</ele>
        <time>2024-03-05T14:23:55+01:00</time>
      </trkpt>
      <trkpt lat="48.65926" lon="2.49226">
        <ele>84</ele>
        <time>2024-03-05T14:24:17+01:00</time>
      </trkpt>
      <trkpt lat="48.65903" lon="2.49219">
        <ele>84</ele>
        <time>2024-03-05T14:24:35+01:00</time>
      </trkpt>
      <trkpt lat="48.65881" lon="2.49229">
        <ele>84</ele>
        <time>2024-03-05T14:24:55+01:00</time>
      </trkpt>
      <trkpt lat="48.65858" lon="2.49232">
        <ele>84</ele>
        <time>2024-03-05T14:25:14+01:00</time>
      </trkpt>
      <trkpt lat="48.65835" lon="2.49236">
        <ele>84</ele>
        <time>2024-03-05T14:25:34+01:00</time>
      </trkpt>
      <trkpt lat="48.65812" lon="2.4924">
        <ele>84</ele>
        <time>2024-03-05T14:25:56+01:00</time>
      </trkpt>
      <trkpt lat="48.65789" lon="2.49242">
        <ele>84</ele>
        <time>2024-03-05T14:26:20+01:00</time>
      </trkpt>
      <trkpt lat="48.65766" lon="2.49248">
        <ele>83</ele>
        <time>2024-03-05T14:26:40+01:00</time>
      </trkpt>
      <trkpt lat="48.65743" lon="2.49254">
        <ele>84</ele>
        <time>2024-03-05T14:27:01+01:00</time>
      </trkpt>
      <trkpt lat="48.6572" lon="2.4926">
        <ele>83</ele>
        <time>2024-03-05T14:27:24+01:00</time>
      </trkpt>
      <trkpt lat="48.65698" lon="2.4926">
        <ele>83</ele>
        <time>2024-03-05T14:33:04+01:00</time>
      </trkpt>
      <trkpt lat="48.65677" lon="2.49247">
        <ele>83</ele>
        <time>2024-03-05T14:33:33+01:00</time>
      </trkpt>
      <trkpt lat="48.65659" lon="2.49225">
        <ele>83</ele>
        <time>2024-03-05T14:33:57+01:00</time>
      </trkpt>
      <trkpt lat="48.65662" lon="2.49191">
        <ele>83</ele>
        <time>2024-03-05T14:34:22+01:00</time>
      </trkpt>
      <trkpt lat="48.65655" lon="2.49158">
        <ele>83</ele>
        <time>2024-03-05T14:34:46+01:00</time>
      </trkpt>
      <trkpt lat="48.65652" lon="2.49123">
        <ele>83</ele>
        <time>2024-03-05T14:35:10+01:00</time>
      </trkpt>
      <trkpt lat="48.65651" lon="2.49088">
        <ele>83</ele>
        <time>2024-03-05T14:35:31+01:00</time>
      </trkpt>
      <trkpt lat="48.65649" lon="2.49053">
        <ele>83</ele>
        <time>2024-03-05T14:35:58+01:00</time>
      </trkpt>
      <trkpt lat="48.65645" lon="2.49018">
        <ele>83</ele>
        <time>2024-03-05T14:36:19+01:00</time>
      </trkpt>
      <trkpt lat="48.65622" lon="2.49018">
        <ele>83</ele>
        <time>2024-03-05T14:38:32+01:00</time>
      </trkpt>
      <trkpt lat="48.65642" lon="2.49003">
        <ele>83</ele>
        <time>2024-03-05T14:42:10+01:00</time>
      </trkpt>
      <trkpt lat="48.65633" lon="2.48971">
        <ele>82</ele>
        <time>2024-03-05T14:57:12+01:00</time>
      </trkpt>
      <trkpt lat="48.65631" lon="2.48937">
        <ele>82</ele>
        <time>2024-03-05T14:57:36+01:00</time>
      </trkpt>
      <trkpt lat="48.65632" lon="2.48903">
        <ele>83</ele>
        <time>2024-03-05T14:57:58+01:00</time>
      </trkpt>
      <trkpt lat="48.6561" lon="2.48899">
        <ele>83</ele>
        <time>2024-03-05T14:58:56+01:00</time>
      </trkpt>
      <trkpt lat="48.6559" lon="2.48919">
        <ele>83</ele>
        <time>2024-03-05T15:00:35+01:00</time>
      </trkpt>
      <trkpt lat="48.65571" lon="2.48937">
        <ele>83</ele>
        <time>2024-03-05T15:01:15+01:00</time>
      </trkpt>
      <trkpt lat="48.65553" lon="2.48958">
        <ele>82</ele>
        <time>2024-03-05T15:01:38+01:00</time>
      </trkpt>
      <trkpt lat="48.65535" lon="2.48978">
        <ele>82</ele>
        <time>2024-03-05T15:01:57+01:00</time>
      </trkpt>
      <trkpt lat="48.65516" lon="2.48998">
        <ele>82</ele>
        <time>2024-03-05T15:02:16+01:00</time>
      </trkpt>
      <trkpt lat="48.65498" lon="2.49021">
        <ele>83</ele>
        <time>2024-03-05T15:02:37+01:00</time>
      </trkpt>
      <trkpt lat="48.65478" lon="2.49039">
        <ele>82</ele>
        <time>2024-03-05T15:03:01+01:00</time>
      </trkpt>
      <trkpt lat="48.65458" lon="2.4906">
        <ele>82</ele>
        <time>2024-03-05T15:03:23+01:00</time>
      </trkpt>
      <trkpt lat="48.65438" lon="2.49078">
        <ele>81</ele>
        <time>2024-03-05T15:03:46+01:00</time>
      </trkpt>
      <trkpt lat="48.65428" lon="2.49046">
        <ele>81</ele>
        <time>2024-03-05T15:04:11+01:00</time>
      </trkpt>
      <trkpt lat="48.6542" lon="2.49014">
        <ele>81</ele>
        <time>2024-03-05T15:04:31+01:00</time>
      </trkpt>
      <trkpt lat="48.65415" lon="2.48981">
        <ele>81</ele>
        <time>2024-03-05T15:05:09+01:00</time>
      </trkpt>
      <trkpt lat="48.65406" lon="2.48948">
        <ele>81</ele>
        <time>2024-03-05T15:05:30+01:00</time>
      </trkpt>
      <trkpt lat="48.65399" lon="2.48914">
        <ele>82</ele>
        <time>2024-03-05T15:05:55+01:00</time>
      </trkpt>
      <trkpt lat="48.65389" lon="2.4888">
        <ele>81</ele>
        <time>2024-03-05T15:06:19+01:00</time>
      </trkpt>
      <trkpt lat="48.6538" lon="2.48847">
        <ele>82</ele>
        <time>2024-03-05T15:06:44+01:00</time>
      </trkpt>
      <trkpt lat="48.65373" lon="2.48815">
        <ele>82</ele>
        <time>2024-03-05T15:07:03+01:00</time>
      </trkpt>
      <trkpt lat="48.65364" lon="2.48784">
        <ele>82</ele>
        <time>2024-03-05T15:07:26+01:00</time>
      </trkpt>
      <trkpt lat="48.65357" lon="2.48751">
        <ele>81</ele>
        <time>2024-03-05T15:07:46+01:00</time>
      </trkpt>
      <trkpt lat="48.65349" lon="2.48719">
        <ele>82</ele>
        <time>2024-03-05T15:08:07+01:00</time>
      </trkpt>
      <trkpt lat="48.65341" lon="2.48684">
        <ele>82</ele>
        <time>2024-03-05T15:08:31+01:00</time>
      </trkpt>
      <trkpt lat="48.65336" lon="2.48649">
        <ele>82</ele>
        <time>2024-03-05T15:08:54+01:00</time>
      </trkpt>
      <trkpt lat="48.65326" lon="2.48618">
        <ele>82</ele>
        <time>2024-03-05T15:09:24+01:00</time>
      </trkpt>
      <trkpt lat="48.6532" lon="2.48585">
        <ele>82</ele>
        <time>2024-03-05T15:10:00+01:00</time>
      </trkpt>
      <trkpt lat="48.65312" lon="2.48551">
        <ele>82</ele>
        <time>2024-03-05T15:10:30+01:00</time>
      </trkpt>
      <trkpt lat="48.65303" lon="2.48515">
        <ele>82</ele>
        <time>2024-03-05T15:10:54+01:00</time>
      </trkpt>
      <trkpt lat="48.65291" lon="2.48487">
        <ele>82</ele>
        <time>2024-03-05T15:11:19+01:00</time>
      </trkpt>
      <trkpt lat="48.65289" lon="2.48452">
        <ele>82</ele>
        <time>2024-03-05T15:11:44+01:00</time>
      </trkpt>
      <trkpt lat="48.65278" lon="2.48419">
        <ele>82</ele>
        <time>2024-03-05T15:12:31+01:00</time>
      </trkpt>
      <trkpt lat="48.65271" lon="2.48386">
        <ele>82</ele>
        <time>2024-03-05T15:12:56+01:00</time>
      </trkpt>
      <trkpt lat="48.65263" lon="2.48351">
        <ele>81</ele>
        <time>2024-03-05T15:13:19+01:00</time>
      </trkpt>
      <trkpt lat="48.65257" lon="2.48318">
        <ele>83</ele>
        <time>2024-03-05T15:13:48+01:00</time>
      </trkpt>
      <trkpt lat="48.65246" lon="2.48285">
        <ele>83</ele>
        <time>2024-03-05T15:14:07+01:00</time>
      </trkpt>
      <trkpt lat="48.65236" lon="2.48254">
        <ele>82</ele>
        <time>2024-03-05T15:14:38+01:00</time>
      </trkpt>
      <trkpt lat="48.65229" lon="2.48222">
        <ele>83</ele>
        <time>2024-03-05T15:19:46+01:00</time>
      </trkpt>
      <trkpt lat="48.65223" lon="2.48189">
        <ele>83</ele>
        <time>2024-03-05T15:20:16+01:00</time>
      </trkpt>
      <trkpt lat="48.65215" lon="2.48156">
        <ele>84</ele>
        <time>2024-03-05T15:20:44+01:00</time>
      </trkpt>
      <trkpt lat="48.6521" lon="2.48123">
        <ele>84</ele>
        <time>2024-03-05T15:21:16+01:00</time>
      </trkpt>
      <trkpt lat="48.65203" lon="2.48087">
        <ele>83</ele>
        <time>2024-03-05T15:21:39+01:00</time>
      </trkpt>
      <trkpt lat="48.65197" lon="2.48054">
        <ele>83</ele>
        <time>2024-03-05T15:22:11+01:00</time>
      </trkpt>
      <trkpt lat="48.65188" lon="2.48023">
        <ele>83</ele>
        <time>2024-03-05T15:22:39+01:00</time>
      </trkpt>
      <trkpt lat="48.65176" lon="2.47992">
        <ele>84</ele>
        <time>2024-03-05T15:23:04+01:00</time>
      </trkpt>
      <trkpt lat="48.65172" lon="2.47957">
        <ele>83</ele>
        <time>2024-03-05T15:23:29+01:00</time>
      </trkpt>
      <trkpt lat="48.65161" lon="2.47921">
        <ele>83</ele>
        <time>2024-03-05T15:24:01+01:00</time>
      </trkpt>
      <trkpt lat="48.65151" lon="2.47891">
        <ele>84</ele>
        <time>2024-03-05T15:24:33+01:00</time>
      </trkpt>
      <trkpt lat="48.65143" lon="2.47858">
        <ele>83</ele>
        <time>2024-03-05T15:24:58+01:00</time>
      </trkpt>
      <trkpt lat="48.65135" lon="2.47827">
        <ele>83</ele>
        <time>2024-03-05T15:25:26+01:00</time>
      </trkpt>
      <trkpt lat="48.65127" lon="2.47792">
        <ele>83</ele>
        <time>2024-03-05T15:25:52+01:00</time>
      </trkpt>
      <trkpt lat="48.65122" lon="2.47759">
        <ele>84</ele>
        <time>2024-03-05T15:26:15+01:00</time>
      </trkpt>
      <trkpt lat="48.65115" lon="2.47726">
        <ele>84</ele>
        <time>2024-03-05T15:26:39+01:00</time>
      </trkpt>
      <trkpt lat="48.65107" lon="2.47693">
        <ele>84</ele>
        <time>2024-03-05T15:27:08+01:00</time>
      </trkpt>
      <trkpt lat="48.65099" lon="2.47661">
        <ele>85</ele>
        <time>2024-03-05T15:27:31+01:00</time>
      </trkpt>
      <trkpt lat="48.6509" lon="2.47629">
        <ele>85</ele>
        <time>2024-03-05T15:28:01+01:00</time>
      </trkpt>
      <trkpt lat="48.65079" lon="2.47599">
        <ele>84</ele>
        <time>2024-03-05T15:28:21+01:00</time>
      </trkpt>
      <trkpt lat="48.65072" lon="2.47566">
        <ele>84</ele>
        <time>2024-03-05T15:28:49+01:00</time>
      </trkpt>
      <trkpt lat="48.65066" lon="2.47531">
        <ele>84</ele>
        <time>2024-03-05T15:29:13+01:00</time>
      </trkpt>
      <trkpt lat="48.65059" lon="2.47499">
        <ele>85</ele>
        <time>2024-03-05T15:29:41+01:00</time>
      </trkpt>
      <trkpt lat="48.6505" lon="2.47467">
        <ele>84</ele>
        <time>2024-03-05T15:30:04+01:00</time>
      </trkpt>
      <trkpt lat="48.65042" lon="2.47435">
        <ele>85</ele>
        <time>2024-03-05T15:30:27+01:00</time>
      </trkpt>
      <trkpt lat="48.65033" lon="2.47403">
        <ele>84</ele>
        <time>2024-03-05T15:30:50+01:00</time>
      </trkpt>
      <trkpt lat="48.65025" lon="2.47368">
        <ele>85</ele>
        <time>2024-03-05T15:31:15+01:00</time>
      </trkpt>
      <trkpt lat="48.65017" lon="2.47335">
        <ele>84</ele>
        <time>2024-03-05T15:31:39+01:00</time>
      </trkpt>
      <trkpt lat="48.65009" lon="2.47302">
        <ele>84</ele>
        <time>2024-03-05T15:32:01+01:00</time>
      </trkpt>
      <trkpt lat="48.64999" lon="2.4727">
        <ele>84</ele>
        <time>2024-03-05T15:32:24+01:00</time>
      </trkpt>
      <trkpt lat="48.65011" lon="2.4724">
        <ele>84</ele>
        <time>2024-03-05T15:35:03+01:00</time>
      </trkpt>
      <trkpt lat="48.65032" lon="2.47226">
        <ele>85</ele>
        <time>2024-03-05T15:35:32+01:00</time>
      </trkpt>
      <trkpt lat="48.65049" lon="2.47203">
        <ele>84</ele>
        <time>2024-03-05T15:35:55+01:00</time>
      </trkpt>
      <trkpt lat="48.65068" lon="2.47182">
        <ele>85</ele>
        <time>2024-03-05T15:36:20+01:00</time>
      </trkpt>
      <trkpt lat="48.65086" lon="2.4716">
        <ele>85</ele>
        <time>2024-03-05T15:36:48+01:00</time>
      </trkpt>
      <trkpt lat="48.651" lon="2.47131">
        <ele>85</ele>
        <time>2024-03-05T15:37:09+01:00</time>
      </trkpt>
      <trkpt lat="48.65114" lon="2.47104">
        <ele>84</ele>
        <time>2024-03-05T15:37:33+01:00</time>
      </trkpt>
      <trkpt lat="48.65122" lon="2.47138">
        <ele>84</ele>
        <time>2024-03-05T15:38:09+01:00</time>
      </trkpt>
      <trkpt lat="48.65135" lon="2.47166">
        <ele>84</ele>
        <time>2024-03-05T15:38:59+01:00</time>
      </trkpt>
      <trkpt lat="48.65152" lon="2.4719">
        <ele>84</ele>
        <time>2024-03-05T15:39:51+01:00</time>
      </trkpt>
      <trkpt lat="48.65169" lon="2.47214">
        <ele>84</ele>
        <time>2024-03-05T15:40:39+01:00</time>
      </trkpt>
      <trkpt lat="48.65182" lon="2.47242">
        <ele>84</ele>
        <time>2024-03-05T15:41:07+01:00</time>
      </trkpt>
      <trkpt lat="48.65199" lon="2.47265">
        <ele>84</ele>
        <time>2024-03-05T15:41:41+01:00</time>
      </trkpt>
      <trkpt lat="48.65216" lon="2.47288">
        <ele>84</ele>
        <time>2024-03-05T15:42:17+01:00</time>
      </trkpt>
      <trkpt lat="48.65199" lon="2.47265">
        <ele>84</ele>
        <time>2024-03-05T15:45:22+01:00</time>
      </trkpt>
      <trkpt lat="48.65183" lon="2.47241">
        <ele>84</ele>
        <time>2024-03-05T15:46:37+01:00</time>
      </trkpt>
      <trkpt lat="48.65176" lon="2.47206">
        <ele>84</ele>
        <time>2024-03-05T15:47:40+01:00</time>
      </trkpt>
      <trkpt lat="48.65159" lon="2.47181">
        <ele>84</ele>
        <time>2024-03-05T15:48:05+01:00</time>
      </trkpt>
      <trkpt lat="48.6514" lon="2.4716">
        <ele>84</ele>
        <time>2024-03-05T15:48:40+01:00</time>
      </trkpt>
      <trkpt lat="48.65119" lon="2.4714">
        <ele>83</ele>
        <time>2024-03-05T15:49:16+01:00</time>
      </trkpt>
      <trkpt lat="48.65103" lon="2.47116">
        <ele>84</ele>
        <time>2024-03-05T15:49:38+01:00</time>
      </trkpt>
      <trkpt lat="48.65085" lon="2.47136">
        <ele>84</ele>
        <time>2024-03-05T15:50:08+01:00</time>
      </trkpt>
      <trkpt lat="48.6508" lon="2.4717">
        <ele>84</ele>
        <time>2024-03-05T15:52:44+01:00</time>
      </trkpt>
      <trkpt lat="48.65061" lon="2.47189">
        <ele>84</ele>
        <time>2024-03-05T15:53:22+01:00</time>
      </trkpt>
      <trkpt lat="48.65042" lon="2.47211">
        <ele>84</ele>
        <time>2024-03-05T15:53:50+01:00</time>
      </trkpt>
      <trkpt lat="48.65023" lon="2.47229">
        <ele>84</ele>
        <time>2024-03-05T15:54:19+01:00</time>
      </trkpt>
      <trkpt lat="48.65001" lon="2.47246">
        <ele>84</ele>
        <time>2024-03-05T15:54:43+01:00</time>
      </trkpt>
      <trkpt lat="48.65" lon="2.47281">
        <ele>84</ele>
        <time>2024-03-05T15:55:11+01:00</time>
      </trkpt>
      <trkpt lat="48.65008" lon="2.47313">
        <ele>85</ele>
        <time>2024-03-05T15:55:36+01:00</time>
      </trkpt>
      <trkpt lat="48.65016" lon="2.47345">
        <ele>84</ele>
        <time>2024-03-05T15:56:01+01:00</time>
      </trkpt>
      <trkpt lat="48.65022" lon="2.47378">
        <ele>84</ele>
        <time>2024-03-05T15:56:22+01:00</time>
      </trkpt>
      <trkpt lat="48.65031" lon="2.4741">
        <ele>84</ele>
        <time>2024-03-05T15:56:48+01:00</time>
      </trkpt>
      <trkpt lat="48.65036" lon="2.47445">
        <ele>84</ele>
        <time>2024-03-05T15:57:15+01:00</time>
      </trkpt>
      <trkpt lat="48.65044" lon="2.47477">
        <ele>84</ele>
        <time>2024-03-05T15:57:38+01:00</time>
      </trkpt>
      <trkpt lat="48.65055" lon="2.47508">
        <ele>84</ele>
        <time>2024-03-05T15:58:02+01:00</time>
      </trkpt>
      <trkpt lat="48.65062" lon="2.47542">
        <ele>84</ele>
        <time>2024-03-05T15:58:31+01:00</time>
      </trkpt>
      <trkpt lat="48.6507" lon="2.47575">
        <ele>85</ele>
        <time>2024-03-05T15:58:53+01:00</time>
      </trkpt>
      <trkpt lat="48.65079" lon="2.47607">
        <ele>84</ele>
        <time>2024-03-05T15:59:15+01:00</time>
      </trkpt>
      <trkpt lat="48.65085" lon="2.47643">
        <ele>85</ele>
        <time>2024-03-05T15:59:36+01:00</time>
      </trkpt>
      <trkpt lat="48.65094" lon="2.47675">
        <ele>84</ele>
        <time>2024-03-05T16:00:02+01:00</time>
      </trkpt>
      <trkpt lat="48.65097" lon="2.47711">
        <ele>84</ele>
        <time>2024-03-05T16:00:23+01:00</time>
      </trkpt>
      <trkpt lat="48.65108" lon="2.47741">
        <ele>84</ele>
        <time>2024-03-05T16:00:43+01:00</time>
      </trkpt>
      <trkpt lat="48.65116" lon="2.47774">
        <ele>84</ele>
        <time>2024-03-05T16:01:01+01:00</time>
      </trkpt>
      <trkpt lat="48.6512" lon="2.47808">
        <ele>83</ele>
        <time>2024-03-05T16:01:22+01:00</time>
      </trkpt>
      <trkpt lat="48.65131" lon="2.47842">
        <ele>83</ele>
        <time>2024-03-05T16:01:45+01:00</time>
      </trkpt>
      <trkpt lat="48.65141" lon="2.47874">
        <ele>83</ele>
        <time>2024-03-05T16:02:14+01:00</time>
      </trkpt>
      <trkpt lat="48.65149" lon="2.47906">
        <ele>83</ele>
        <time>2024-03-05T16:02:35+01:00</time>
      </trkpt>
      <trkpt lat="48.65156" lon="2.4794">
        <ele>84</ele>
        <time>2024-03-05T16:03:00+01:00</time>
      </trkpt>
      <trkpt lat="48.65166" lon="2.47971">
        <ele>82</ele>
        <time>2024-03-05T16:03:24+01:00</time>
      </trkpt>
      <trkpt lat="48.65173" lon="2.48004">
        <ele>83</ele>
        <time>2024-03-05T16:03:51+01:00</time>
      </trkpt>
      <trkpt lat="48.65183" lon="2.48036">
        <ele>84</ele>
        <time>2024-03-05T16:04:14+01:00</time>
      </trkpt>
      <trkpt lat="48.6519" lon="2.4807">
        <ele>84</ele>
        <time>2024-03-05T16:04:35+01:00</time>
      </trkpt>
      <trkpt lat="48.65195" lon="2.48104">
        <ele>83</ele>
        <time>2024-03-05T16:04:55+01:00</time>
      </trkpt>
      <trkpt lat="48.65201" lon="2.48137">
        <ele>83</ele>
        <time>2024-03-05T16:05:14+01:00</time>
      </trkpt>
      <trkpt lat="48.6521" lon="2.48169">
        <ele>83</ele>
        <time>2024-03-05T16:05:33+01:00</time>
      </trkpt>
      <trkpt lat="48.65217" lon="2.48202">
        <ele>84</ele>
        <time>2024-03-05T16:05:51+01:00</time>
      </trkpt>
      <trkpt lat="48.6523" lon="2.4823">
        <ele>83</ele>
        <time>2024-03-05T16:07:39+01:00</time>
      </trkpt>
      <trkpt lat="48.65252" lon="2.48219">
        <ele>83</ele>
        <time>2024-03-05T16:17:39+01:00</time>
      </trkpt>
      <trkpt lat="48.65271" lon="2.48198">
        <ele>84</ele>
        <time>2024-03-05T16:18:00+01:00</time>
      </trkpt>
      <trkpt lat="48.6529" lon="2.4818">
        <ele>83</ele>
        <time>2024-03-05T16:18:20+01:00</time>
      </trkpt>
      <trkpt lat="48.65309" lon="2.48162">
        <ele>83</ele>
        <time>2024-03-05T16:18:40+01:00</time>
      </trkpt>
      <trkpt lat="48.65329" lon="2.48143">
        <ele>83</ele>
        <time>2024-03-05T16:19:01+01:00</time>
      </trkpt>
      <trkpt lat="48.65348" lon="2.48124">
        <ele>83</ele>
        <time>2024-03-05T16:19:22+01:00</time>
      </trkpt>
      <trkpt lat="48.65368" lon="2.48108">
        <ele>83</ele>
        <time>2024-03-05T16:19:40+01:00</time>
      </trkpt>
      <trkpt lat="48.65387" lon="2.48088">
        <ele>83</ele>
        <time>2024-03-05T16:19:59+01:00</time>
      </trkpt>
      <trkpt lat="48.65407" lon="2.48071">
        <ele>83</ele>
        <time>2024-03-05T16:20:17+01:00</time>
      </trkpt>
      <trkpt lat="48.65425" lon="2.48051">
        <ele>83</ele>
        <time>2024-03-05T16:20:37+01:00</time>
      </trkpt>
      <trkpt lat="48.65445" lon="2.48034">
        <ele>83</ele>
        <time>2024-03-05T16:20:58+01:00</time>
      </trkpt>
      <trkpt lat="48.65468" lon="2.48016">
        <ele>83</ele>
        <time>2024-03-05T16:21:20+01:00</time>
      </trkpt>
      <trkpt lat="48.65485" lon="2.47993">
        <ele>83</ele>
        <time>2024-03-05T16:21:43+01:00</time>
      </trkpt>
      <trkpt lat="48.65505" lon="2.47972">
        <ele>83</ele>
        <time>2024-03-05T16:22:03+01:00</time>
      </trkpt>
      <trkpt lat="48.65526" lon="2.47956">
        <ele>83</ele>
        <time>2024-03-05T16:22:22+01:00</time>
      </trkpt>
      <trkpt lat="48.65545" lon="2.47936">
        <ele>84</ele>
        <time>2024-03-05T16:22:43+01:00</time>
      </trkpt>
      <trkpt lat="48.65563" lon="2.47916">
        <ele>84</ele>
        <time>2024-03-05T16:23:04+01:00</time>
      </trkpt>
      <trkpt lat="48.65584" lon="2.47899">
        <ele>83</ele>
        <time>2024-03-05T16:23:22+01:00</time>
      </trkpt>
      <trkpt lat="48.65605" lon="2.47882">
        <ele>83</ele>
        <time>2024-03-05T16:23:41+01:00</time>
      </trkpt>
      <trkpt lat="48.65625" lon="2.47902">
        <ele>84</ele>
        <time>2024-03-05T16:24:14+01:00</time>
      </trkpt>
      <trkpt lat="48.65645" lon="2.47916">
        <ele>83</ele>
        <time>2024-03-05T16:24:35+01:00</time>
      </trkpt>
      <trkpt lat="48.65666" lon="2.47929">
        <ele>83</ele>
        <time>2024-03-05T16:24:52+01:00</time>
      </trkpt>
      <trkpt lat="48.65686" lon="2.47945">
        <ele>84</ele>
        <time>2024-03-05T16:25:11+01:00</time>
      </trkpt>
      <trkpt lat="48.65707" lon="2.47957">
        <ele>84</ele>
        <time>2024-03-05T16:25:30+01:00</time>
      </trkpt>
      <trkpt lat="48.65725" lon="2.47979">
        <ele>83</ele>
        <time>2024-03-05T16:25:53+01:00</time>
      </trkpt>
      <trkpt lat="48.65746" lon="2.47992">
        <ele>84</ele>
        <time>2024-03-05T16:26:14+01:00</time>
      </trkpt>
      <trkpt lat="48.65767" lon="2.48005">
        <ele>83</ele>
        <time>2024-03-05T16:26:32+01:00</time>
      </trkpt>
      <trkpt lat="48.65788" lon="2.48023">
        <ele>83</ele>
        <time>2024-03-05T16:26:52+01:00</time>
      </trkpt>
      <trkpt lat="48.6581" lon="2.48036">
        <ele>83</ele>
        <time>2024-03-05T16:27:12+01:00</time>
      </trkpt>
      <trkpt lat="48.65827" lon="2.4806">
        <ele>83</ele>
        <time>2024-03-05T16:27:33+01:00</time>
      </trkpt>
      <trkpt lat="48.65849" lon="2.48072">
        <ele>83</ele>
        <time>2024-03-05T16:27:51+01:00</time>
      </trkpt>
      <trkpt lat="48.65871" lon="2.48084">
        <ele>83</ele>
        <time>2024-03-05T16:29:23+01:00</time>
      </trkpt>
      <trkpt lat="48.65891" lon="2.48101">
        <ele>83</ele>
        <time>2024-03-05T16:29:44+01:00</time>
      </trkpt>
      <trkpt lat="48.65911" lon="2.48117">
        <ele>84</ele>
        <time>2024-03-05T16:30:09+01:00</time>
      </trkpt>
      <trkpt lat="48.65933" lon="2.48133">
        <ele>83</ele>
        <time>2024-03-05T16:30:29+01:00</time>
      </trkpt>
      <trkpt lat="48.65953" lon="2.4815">
        <ele>84</ele>
        <time>2024-03-05T16:31:08+01:00</time>
      </trkpt>
      <trkpt lat="48.65974" lon="2.48166">
        <ele>83</ele>
        <time>2024-03-05T16:31:30+01:00</time>
      </trkpt>
      <trkpt lat="48.65996" lon="2.48183">
        <ele>83</ele>
        <time>2024-03-05T16:31:55+01:00</time>
      </trkpt>
      <trkpt lat="48.66018" lon="2.4819">
        <ele>83</ele>
        <time>2024-03-05T16:32:20+01:00</time>
      </trkpt>
      <trkpt lat="48.66036" lon="2.48212">
        <ele>84</ele>
        <time>2024-03-05T16:32:41+01:00</time>
      </trkpt>
      <trkpt lat="48.66057" lon="2.48225">
        <ele>84</ele>
        <time>2024-03-05T16:32:58+01:00</time>
      </trkpt>
      <trkpt lat="48.66077" lon="2.48245">
        <ele>83</ele>
        <time>2024-03-05T16:33:21+01:00</time>
      </trkpt>
      <trkpt lat="48.66099" lon="2.48256">
        <ele>83</ele>
        <time>2024-03-05T16:33:37+01:00</time>
      </trkpt>
      <trkpt lat="48.66118" lon="2.48275">
        <ele>84</ele>
        <time>2024-03-05T16:33:58+01:00</time>
      </trkpt>
      <trkpt lat="48.6614" lon="2.48291">
        <ele>83</ele>
        <time>2024-03-05T16:34:19+01:00</time>
      </trkpt>
      <trkpt lat="48.66156" lon="2.48314">
        <ele>83</ele>
        <time>2024-03-05T16:34:42+01:00</time>
      </trkpt>
      <trkpt lat="48.66174" lon="2.48336">
        <ele>83</ele>
        <time>2024-03-05T16:35:07+01:00</time>
      </trkpt>
      <trkpt lat="48.66197" lon="2.48341">
        <ele>83</ele>
        <time>2024-03-05T16:35:29+01:00</time>
      </trkpt>
      <trkpt lat="48.66222" lon="2.48351">
        <ele>83</ele>
        <time>2024-03-05T16:35:51+01:00</time>
      </trkpt>
      <trkpt lat="48.66243" lon="2.48366">
        <ele>84</ele>
        <time>2024-03-05T16:36:14+01:00</time>
      </trkpt>
      <trkpt lat="48.66267" lon="2.48374">
        <ele>83</ele>
        <time>2024-03-05T16:36:35+01:00</time>
      </trkpt>
      <trkpt lat="48.66288" lon="2.48386">
        <ele>84</ele>
        <time>2024-03-05T16:36:57+01:00</time>
      </trkpt>
      <trkpt lat="48.66311" lon="2.48389">
        <ele>82</ele>
        <time>2024-03-05T16:37:14+01:00</time>
      </trkpt>
      <trkpt lat="48.66334" lon="2.48397">
        <ele>83</ele>
        <time>2024-03-05T16:37:36+01:00</time>
      </trkpt>
      <trkpt lat="48.66355" lon="2.48409">
        <ele>83</ele>
        <time>2024-03-05T16:37:54+01:00</time>
      </trkpt>
      <trkpt lat="48.66377" lon="2.48421">
        <ele>83</ele>
        <time>2024-03-05T16:38:21+01:00</time>
      </trkpt>
      <trkpt lat="48.664" lon="2.48423">
        <ele>84</ele>
        <time>2024-03-05T16:38:37+01:00</time>
      </trkpt>
      <trkpt lat="48.66424" lon="2.48432">
        <ele>83</ele>
        <time>2024-03-05T16:39:02+01:00</time>
      </trkpt>
      <trkpt lat="48.66445" lon="2.48447">
        <ele>84</ele>
        <time>2024-03-05T16:39:20+01:00</time>
      </trkpt>
      <trkpt lat="48.66469" lon="2.48447">
        <ele>84</ele>
        <time>2024-03-05T16:39:39+01:00</time>
      </trkpt>
      <trkpt lat="48.66491" lon="2.48458">
        <ele>84</ele>
        <time>2024-03-05T16:40:05+01:00</time>
      </trkpt>
      <trkpt lat="48.66515" lon="2.48471">
        <ele>85</ele>
        <time>2024-03-05T16:40:29+01:00</time>
      </trkpt>
      <trkpt lat="48.66539" lon="2.48473">
        <ele>85</ele>
        <time>2024-03-05T16:40:46+01:00</time>
      </trkpt>
      <trkpt lat="48.66562" lon="2.48483">
        <ele>84</ele>
        <time>2024-03-05T16:41:11+01:00</time>
      </trkpt>
      <trkpt lat="48.66582" lon="2.48499">
        <ele>85</ele>
        <time>2024-03-05T16:41:32+01:00</time>
      </trkpt>
      <trkpt lat="48.66604" lon="2.48503">
        <ele>85</ele>
        <time>2024-03-05T16:41:51+01:00</time>
      </trkpt>
      <trkpt lat="48.66628" lon="2.48504">
        <ele>85</ele>
        <time>2024-03-05T16:42:09+01:00</time>
      </trkpt>
      <trkpt lat="48.66647" lon="2.48524">
        <ele>85</ele>
        <time>2024-03-05T16:42:33+01:00</time>
      </trkpt>
      <trkpt lat="48.66671" lon="2.48525">
        <ele>84</ele>
        <time>2024-03-05T16:42:54+01:00</time>
      </trkpt>
      <trkpt lat="48.66694" lon="2.48533">
        <ele>85</ele>
        <time>2024-03-05T16:43:15+01:00</time>
      </trkpt>
      <trkpt lat="48.66713" lon="2.48551">
        <ele>84</ele>
        <time>2024-03-05T16:45:10+01:00</time>
      </trkpt>
      <trkpt lat="48.66719" lon="2.48584">
        <ele>84</ele>
        <time>2024-03-05T16:45:30+01:00</time>
      </trkpt>
      <trkpt lat="48.66728" lon="2.48617">
        <ele>84</ele>
        <time>2024-03-05T16:45:54+01:00</time>
      </trkpt>
      <trkpt lat="48.66736" lon="2.48649">
        <ele>85</ele>
        <time>2024-03-05T16:46:16+01:00</time>
      </trkpt>
      <trkpt lat="48.66743" lon="2.48682">
        <ele>85</ele>
        <time>2024-03-05T16:46:43+01:00</time>
      </trkpt>
      <trkpt lat="48.66754" lon="2.48713">
        <ele>85</ele>
        <time>2024-03-05T16:47:03+01:00</time>
      </trkpt>
      <trkpt lat="48.6676" lon="2.48748">
        <ele>84</ele>
        <time>2024-03-05T16:47:24+01:00</time>
      </trkpt>
      <trkpt lat="48.6677" lon="2.48779">
        <ele>85</ele>
        <time>2024-03-05T16:47:48+01:00</time>
      </trkpt>
      <trkpt lat="48.66778" lon="2.48811">
        <ele>85</ele>
        <time>2024-03-05T16:48:11+01:00</time>
      </trkpt>
      <trkpt lat="48.66786" lon="2.48843">
        <ele>84</ele>
        <time>2024-03-05T16:48:34+01:00</time>
      </trkpt>
      <trkpt lat="48.66792" lon="2.48877">
        <ele>84</ele>
        <time>2024-03-05T16:48:56+01:00</time>
      </trkpt>
      <trkpt lat="48.66814" lon="2.48866">
        <ele>85</ele>
        <time>2024-03-05T16:49:21+01:00</time>
      </trkpt>
      <trkpt lat="48.66811" lon="2.48827">
        <ele>84</ele>
        <time>2024-03-05T16:49:42+01:00</time>
      </trkpt>
      <trkpt lat="48.66802" lon="2.48796">
        <ele>85</ele>
        <time>2024-03-05T16:50:08+01:00</time>
      </trkpt>
      <trkpt lat="48.66819" lon="2.48769">
        <ele>84</ele>
        <time>2024-03-05T16:50:35+01:00</time>
      </trkpt>
      <trkpt lat="48.66839" lon="2.48754">
        <ele>84</ele>
        <time>2024-03-05T16:50:56+01:00</time>
      </trkpt>
      <trkpt lat="48.66852" lon="2.48725">
        <ele>85</ele>
        <time>2024-03-05T16:51:16+01:00</time>
      </trkpt>
      <trkpt lat="48.66865" lon="2.48697">
        <ele>85</ele>
        <time>2024-03-05T16:51:40+01:00</time>
      </trkpt>
      <trkpt lat="48.66887" lon="2.48697">
        <ele>85</ele>
        <time>2024-03-05T16:52:03+01:00</time>
      </trkpt>
      <trkpt lat="48.66912" lon="2.48685">
        <ele>84</ele>
        <time>2024-03-05T16:52:24+01:00</time>
      </trkpt>
      <trkpt lat="48.66935" lon="2.48678">
        <ele>85</ele>
        <time>2024-03-05T16:52:44+01:00</time>
      </trkpt>
      <trkpt lat="48.66952" lon="2.48701">
        <ele>84</ele>
        <time>2024-03-05T16:53:12+01:00</time>
      </trkpt>
      <trkpt lat="48.66975" lon="2.48705">
        <ele>84</ele>
        <time>2024-03-05T16:53:32+01:00</time>
      </trkpt>
      <trkpt lat="48.66997" lon="2.48695">
        <ele>85</ele>
        <time>2024-03-05T16:53:48+01:00</time>
      </trkpt>
      <trkpt lat="48.6702" lon="2.48695">
        <ele>84</ele>
        <time>2024-03-05T16:54:15+01:00</time>
      </trkpt>
      <trkpt lat="48.67043" lon="2.48703">
        <ele>84</ele>
        <time>2024-03-05T16:54:35+01:00</time>
      </trkpt>
      <trkpt lat="48.67067" lon="2.48709">
        <ele>84</ele>
        <time>2024-03-05T16:54:54+01:00</time>
      </trkpt>
      <trkpt lat="48.6709" lon="2.48695">
        <ele>84</ele>
        <time>2024-03-05T16:55:22+01:00</time>
      </trkpt>
      <trkpt lat="48.67105" lon="2.48669">
        <ele>85</ele>
        <time>2024-03-05T16:55:51+01:00</time>
      </trkpt>
      <trkpt lat="48.67128" lon="2.48678">
        <ele>85</ele>
        <time>2024-03-05T16:56:17+01:00</time>
      </trkpt>
      <trkpt lat="48.67148" lon="2.48691">
        <ele>84</ele>
        <time>2024-03-05T16:56:40+01:00</time>
      </trkpt>
      <trkpt lat="48.67169" lon="2.48706">
        <ele>84</ele>
        <time>2024-03-05T16:57:04+01:00</time>
      </trkpt>
      <trkpt lat="48.6719" lon="2.48722">
        <ele>84</ele>
        <time>2024-03-05T16:57:26+01:00</time>
      </trkpt>
      <trkpt lat="48.67211" lon="2.4874">
        <ele>85</ele>
        <time>2024-03-05T16:57:45+01:00</time>
      </trkpt>
      <trkpt lat="48.67229" lon="2.48761">
        <ele>85</ele>
        <time>2024-03-05T16:58:08+01:00</time>
      </trkpt>
      <trkpt lat="48.67241" lon="2.4879">
        <ele>84</ele>
        <time>2024-03-05T16:58:29+01:00</time>
      </trkpt>
      <trkpt lat="48.67241" lon="2.48826">
        <ele>85</ele>
        <time>2024-03-05T16:58:51+01:00</time>
      </trkpt>
      <trkpt lat="48.67248" lon="2.48859">
        <ele>84</ele>
        <time>2024-03-05T16:59:12+01:00</time>
      </trkpt>
      <trkpt lat="48.67257" lon="2.4889">
        <ele>84</ele>
        <time>2024-03-05T16:59:33+01:00</time>
      </trkpt>
      <trkpt lat="48.6727" lon="2.48918">
        <ele>84</ele>
        <time>2024-03-05T16:59:53+01:00</time>
      </trkpt>
      <trkpt lat="48.67276" lon="2.48953">
        <ele>85</ele>
        <time>2024-03-05T17:00:14+01:00</time>
      </trkpt>
      <trkpt lat="48.67283" lon="2.48987">
        <ele>84</ele>
        <time>2024-03-05T17:00:36+01:00</time>
      </trkpt>
      <trkpt lat="48.67295" lon="2.49017">
        <ele>84</ele>
        <time>2024-03-05T17:00:57+01:00</time>
      </trkpt>
      <trkpt lat="48.67304" lon="2.4905">
        <ele>85</ele>
        <time>2024-03-05T17:01:19+01:00</time>
      </trkpt>
      <trkpt lat="48.67316" lon="2.49081">
        <ele>85</ele>
        <time>2024-03-05T17:01:38+01:00</time>
      </trkpt>
      <trkpt lat="48.67331" lon="2.49108">
        <ele>85</ele>
        <time>2024-03-05T17:01:59+01:00</time>
      </trkpt>
      <trkpt lat="48.67337" lon="2.49142">
        <ele>84</ele>
        <time>2024-03-05T17:02:17+01:00</time>
      </trkpt>
      <trkpt lat="48.67352" lon="2.49171">
        <ele>84</ele>
        <time>2024-03-05T17:02:40+01:00</time>
      </trkpt>
      <trkpt lat="48.67364" lon="2.49201">
        <ele>84</ele>
        <time>2024-03-05T17:02:59+01:00</time>
      </trkpt>
      <trkpt lat="48.67375" lon="2.49232">
        <ele>85</ele>
        <time>2024-03-05T17:03:27+01:00</time>
      </trkpt>
      <trkpt lat="48.67394" lon="2.49215">
        <ele>85</ele>
        <time>2024-03-05T17:03:45+01:00</time>
      </trkpt>
      <trkpt lat="48.67413" lon="2.49193">
        <ele>85</ele>
        <time>2024-03-05T17:04:07+01:00</time>
      </trkpt>
      <trkpt lat="48.67432" lon="2.49174">
        <ele>84</ele>
        <time>2024-03-05T17:04:30+01:00</time>
      </trkpt>
      <trkpt lat="48.67445" lon="2.49144">
        <ele>85</ele>
        <time>2024-03-05T17:04:50+01:00</time>
      </trkpt>
      <trkpt lat="48.6746" lon="2.49117">
        <ele>84</ele>
        <time>2024-03-05T17:05:14+01:00</time>
      </trkpt>
      <trkpt lat="48.67479" lon="2.49097">
        <ele>85</ele>
        <time>2024-03-05T17:05:34+01:00</time>
      </trkpt>
      <trkpt lat="48.675" lon="2.49077">
        <ele>85</ele>
        <time>2024-03-05T17:05:57+01:00</time>
      </trkpt>
      <trkpt lat="48.67509" lon="2.49045">
        <ele>85</ele>
        <time>2024-03-05T17:06:18+01:00</time>
      </trkpt>
      <trkpt lat="48.67522" lon="2.49011">
        <ele>84</ele>
        <time>2024-03-05T17:06:43+01:00</time>
      </trkpt>
      <trkpt lat="48.67545" lon="2.49016">
        <ele>85</ele>
        <time>2024-03-05T17:07:13+01:00</time>
      </trkpt>
      <trkpt lat="48.67566" lon="2.49029">
        <ele>84</ele>
        <time>2024-03-05T17:07:35+01:00</time>
      </trkpt>
      <trkpt lat="48.67588" lon="2.49038">
        <ele>84</ele>
        <time>2024-03-05T17:07:57+01:00</time>
      </trkpt>
      <trkpt lat="48.67613" lon="2.49037">
        <ele>85</ele>
        <time>2024-03-05T17:08:26+01:00</time>
      </trkpt>
      <trkpt lat="48.67632" lon="2.49055">
        <ele>84</ele>
        <time>2024-03-05T17:08:48+01:00</time>
      </trkpt>
    </trkseg>
  </trk>
</gpx>